Flight Track Log - Related Links

Times and Time Zones

All times are in EDT time to prevent confusion due to time zone crossing. See the UPS1275 flight status page for this flight to view local times or setup timezone preferences in your user account.

Time Position Orientation Groundspeed Altitude Reporting Facility
EDT Latitude Longitude Course Direction KTS MPH feet Rate Location/Type
Thu 10:10:06 PM 35.8500 -78.8350 228° Southwest 231 266 3,200  Level FlightAware ADS-B
Thu 10:10:35 PM 35.8290 -78.8690 233° Southwest 260 299 5,300 3,808 Climbing FlightAware ADS-B
Thu 10:10:58 PM 35.8170 -78.8990 244° Southwest 266 306 6,500 1,925 Climbing FlightAware ADS-B
Thu 10:11:28 PM 35.8010 -78.9430 246° West 272 313 7,000 1,100 Climbing FlightAware ADS-B
Thu 10:11:58 PM 35.7850 -78.9830 244° Southwest 275 316 7,600 1,500 Climbing FlightAware ADS-B
Thu 10:12:16 PM 35.7750 -79.0080 244° Southwest 276 318 8,200 2,400 Climbing FlightAware ADS-B
Thu 10:12:28 PM 35.7680 -79.0260 244° Southwest 280 322 8,800 3,111 Climbing FlightAware ADS-B
Thu 10:13:10 PM 35.7450 -79.0880 245° Southwest 298 343 11,000 1,776 Climbing FlightAware ADS-B
Thu 10:14:06 PM 35.7120 -79.1710 244° Southwest 343 395 11,700 612 Climbing FlightAware ADS-B
Thu 10:14:48 PM 35.7270 -79.1330 64° Northeast 381 438 12,000 188 Climbing FlightAware ADS-B
Thu 10:15:42 PM 35.7690 -79.3870 282° West 380 437 12,000  Level FlightAware ADS-B
Thu 10:16:27 PM 35.7960 -79.4670 293° West 379 436 12,000  Level FlightAware ADS-B
Thu 10:17:15 PM 35.8240 -79.5480 293° West 379 436 12,000 3,900 Level FlightAware ADS-B
Thu 10:17:47 PM 35.8736 -79.6003 293° West 388 447 17,200 5,935 Climbing Atlanta Center
Thu 10:18:47 PM 35.9700 -79.7258 314° West 405 466 21,100 2,900 Climbing Atlanta Center
Thu 10:19:47 PM 36.0036 -79.8497 289° West 416 479 23,000 1,600 Climbing Atlanta Center
Thu 10:20:47 PM 36.0394 -79.9917 287° West 429 494 24,300 1,950 Climbing Atlanta Center
Thu 10:21:47 PM 36.0778 -80.1414 288° West 441 507 26,900 1,656 Climbing Atlanta Center
Thu 10:27:18 PM 36.2990 -80.9730 288° West 36,000 1,500 Climbing FlightAware ADS-B
Thu 10:27:51 PM 36.3340 -81.0682 295° West 465 535 36,000  Level FlightAware ADS-B
Thu 10:28:22 PM 36.3608 -81.1424 294° West 462 532 36,000  Level FlightAware ADS-B
Thu 10:28:56 PM 36.3902 -81.2239 294° West 460 529 36,000 -234 Level FlightAware ADS-B
Thu 10:29:39 PM 36.4273 -81.3267 294° West 462 532 35,700 -486 Descending FlightAware ADS-B
Thu 10:30:10 PM 36.4552 -81.4042 294° West 469 540 35,400 -484 Descending FlightAware ADS-B
Thu 10:30:41 PM 36.4825 -81.4804 294° West 472 543 35,200 -387 Descending FlightAware ADS-B
Thu 10:31:12 PM 36.5097 -81.5565 294° West 470 541 35,000 -476 Descending FlightAware ADS-B
Thu 10:31:44 PM 36.5374 -81.6343 294° West 461 531 34,700 -563 Descending FlightAware ADS-B
Thu 10:32:16 PM 36.5644 -81.7110 294° West 463 533 34,400 -484 Descending FlightAware ADS-B
Thu 10:32:46 PM 36.5905 -81.7843 294° West 464 534 34,200 -387 Descending FlightAware ADS-B
Thu 10:33:18 PM 36.6180 -81.8616 294° West 460 529 34,000 -162 Descending FlightAware ADS-B
Thu 10:34:00 PM 36.6500 -81.9540 293° West 465 535 34,000  Level FlightAware ADS-B
Thu 10:34:46 PM 36.6910 -82.0700 294° West 464 534 34,000  Level FlightAware ADS-B
Thu 10:35:06 PM 36.7112 -82.1271 294° West 464 534 34,000  Level FlightAware ADS-B
Thu 10:35:49 PM 36.7475 -82.2309 294° West 464 534 34,000  Level FlightAware ADS-B
Thu 10:36:20 PM 36.7739 -82.3063 294° West 457 526 34,000  Level FlightAware ADS-B
Thu 10:36:52 PM 36.8012 -82.3851 293° West 457 526 34,000  Level FlightAware ADS-B
Thu 10:37:24 PM 36.8277 -82.4618 293° West 459 528 34,000  Level FlightAware ADS-B
Thu 10:37:55 PM 36.8537 -82.5367 293° West 459 528 34,000  Level FlightAware ADS-B
Thu 10:38:25 PM 36.8789 -82.6096 293° West 458 527 34,000  Level FlightAware ADS-B
Thu 10:39:06 PM 36.9129 -82.7090 293° West 458 527 34,000  Level FlightAware ADS-B
Thu 10:39:50 PM 36.9495 -82.8159 293° West 458 527 34,000  Level FlightAware ADS-B
Thu 10:40:24 PM 36.9750 -82.8900 293° West 458 527 34,000 -122 Level FlightAware ADS-B
Thu 10:40:39 PM 36.9902 -82.9353 293° West 458 527 33,900 -429 Descending FlightAware ADS-B
Thu 10:41:20 PM 37.0236 -83.0339 293° West 450 518 33,600 -493 Descending FlightAware ADS-B
Thu 10:41:52 PM 37.0494 -83.1092 293° West 452 520 33,300 -581 Descending FlightAware ADS-B
Thu 10:42:22 PM 37.0743 -83.1827 293° West 453 521 33,000 -469 Descending FlightAware ADS-B
Thu 10:42:56 PM 37.1018 -83.2640 293° West 454 522 32,800 -469 Descending FlightAware ADS-B
Thu 10:43:26 PM 37.1260 -83.3364 293° West 450 518 32,500 -500 Descending FlightAware ADS-B
Thu 10:43:56 PM 37.1504 -83.4094 293° West 449 517 32,300 -492 Descending FlightAware ADS-B
Thu 10:44:27 PM 37.1748 -83.4820 293° West 451 519 32,000 -492 Descending FlightAware ADS-B
Thu 10:44:57 PM 37.1996 -83.5565 293° West 459 528 31,800 -393 Descending FlightAware ADS-B
Thu 10:45:28 PM 37.2210 -83.6210 293° West 457 526 31,600 -484 Descending FlightAware ADS-B
Thu 10:45:59 PM 37.2493 -83.7055 293° West 457 526 31,300 -563 Descending FlightAware ADS-B
Thu 10:46:32 PM 37.2757 -83.7854 293° West 457 526 31,000 -476 Descending FlightAware ADS-B
Thu 10:47:02 PM 37.2996 -83.8580 293° West 450 518 30,800 -500 Descending FlightAware ADS-B
Thu 10:47:32 PM 37.3238 -83.9309 293° West 454 522 30,500 -316 Descending FlightAware ADS-B
Thu 10:48:18 PM 37.3550 -84.0240 293° West 454 522 30,400 -453 Descending FlightAware ADS-B
Thu 10:48:25 PM 37.3668 -84.0622 291° West 460 529 30,100 -1,050 Descending FlightAware ADS-B
Thu 10:48:58 PM 37.3900 -84.1320 293° West 460 529 29,700 -1,592 Descending FlightAware ADS-B
Thu 10:49:14 PM 37.4059 -84.1812 292° West 459 528 28,800 -3,169 Descending FlightAware ADS-B
Thu 10:50:27 PM 37.4638 -84.3596 292° West 453 521 25,000 -3,000 Descending FlightAware ADS-B
Thu 10:51:04 PM 37.4914 -84.4451 292° West 423 487 23,300 -2,735 Descending FlightAware ADS-B
Thu 10:51:35 PM 37.5133 -84.5130 292° West 413 475 21,900 -2,824 Descending FlightAware ADS-B
Thu 10:52:12 PM 37.5402 -84.5951 292° West 403 464 20,100 -1,838 Descending FlightAware ADS-B
Thu 10:53:26 PM 37.5840 -84.7320 292° West 399 459 18,500 -865 Descending FlightAware ADS-B
Thu 10:54:03 PM 37.6060 -84.8000 292° West 399 459 18,500  Level FlightAware ADS-B
Thu 10:54:49 PM 37.6330 -84.8850 292° West 399 459 18,500 -3,469 Level FlightAware ADS-B
Thu 10:55:27 PM 37.6770 -84.9850 299° West 10,800 -5,050 Descending FlightAware ADS-B
Thu 10:56:30 PM 37.7350 -85.0640 313° West 290 334 10,000 -462 Descending FlightAware ADS-B
Thu 10:57:11 PM 37.7660 -85.1080 312° West 283 326 10,000 -560 Level FlightAware ADS-B
Thu 10:57:45 PM 37.7990 -85.1540 312° West 271 312 9,300 -689 Descending FlightAware ADS-B
Thu 10:58:12 PM 37.8190 -85.1810 313° West 271 312 9,300 -735 Level FlightAware ADS-B
Thu 10:58:34 PM 37.8180 -85.2240 268° West 271 312 8,700 -1,548 Descending FlightAware ADS-B
Thu 10:58:43 PM 37.8230 -85.2430 288° West 272 313 8,500 -878 Descending FlightAware ADS-B
Thu 10:59:15 PM 37.8330 -85.2920 285° West 267 307 8,100 -700 Descending FlightAware ADS-B
Thu 10:59:43 PM 37.8420 -85.3350 285° West 270 311 7,800 -750 Descending FlightAware ADS-B
Thu 11:00:11 PM 37.8510 -85.3790 285° West 270 311 7,400 -750 Descending FlightAware ADS-B
Thu 11:00:39 PM 37.8600 -85.4210 285° West 267 307 7,100 -764 Descending FlightAware ADS-B
Thu 11:01:06 PM 37.8680 -85.4620 284° West 269 310 6,700 -750 Descending FlightAware ADS-B
Thu 11:01:35 PM 37.8770 -85.5050 285° West 270 311 6,400 -750 Descending FlightAware ADS-B
Thu 11:02:18 PM 37.8900 -85.5700 284° West 275 316 5,800 -794 Descending FlightAware ADS-B
Thu 11:02:43 PM 37.8970 -85.6070 283° West 276 318 5,500 -960 Descending FlightAware ADS-B
Thu 11:03:08 PM 37.9100 -85.6450 293° West 272 313 5,000 -1,200 Descending FlightAware ADS-B
Thu 11:03:18 PM 37.9190 -85.6560 316° Northwest 267 307 4,800 -1,440 Descending FlightAware ADS-B
Thu 11:03:33 PM 37.9330 -85.6650 333° Northwest 259 298 4,400 -1,050 Descending FlightAware ADS-B
Thu 11:03:58 PM 37.9650 -85.6760 345° North 243 280 4,100 -764 Descending FlightAware ADS-B
Thu 11:04:28 PM 37.9930 -85.6850 346° North 231 266 3,700 -1,100 Descending FlightAware ADS-B
Thu 11:04:58 PM 38.0240 -85.6950 346° North 204 235 3,000 -1,200 Descending FlightAware ADS-B
Thu 11:05:18 PM 38.0420 -85.7010 345° North 184 212 2,700 -840 Descending FlightAware ADS-B
Thu 11:05:48 PM 38.0640 -85.7080 346° North 159 183 2,300 -840 Descending FlightAware ADS-B
Thu 11:06:08 PM 38.0760 -85.7120 345° North 136 157 2,000 -764 Descending FlightAware ADS-B
Thu 11:06:43 PM 38.0970 -85.7190 345° North 132 152 1,600 -655 Descending FlightAware ADS-B
Thu 11:07:03 PM 38.1080 -85.7230 344° North 135 155 1,400 -667 Descending FlightAware ADS-B
Thu 11:07:28 PM 38.1250 -85.7280 347° North 138 159 1,100 -737 Descending FlightAware ADS-B
Thu 11:08:00 PM 38.1460 -85.7350 345° North 139 160 700 -778 Descending FlightAware ADS-B
Thu 11:08:22 PM 38.1600 -85.7400 344° North 141 162 400 -360 Descending FlightAware ADS-B
Thu 11:08:50 PM 38.1750 -85.7450 345° North 141 162 400  Level FlightAware ADS-B
Thu 11:09:54 PM 38.1770 -85.7400 63° Northeast 27 31 -375 Descending FlightAware ADS-B
Thu 11:10:02 PM 38.1750 -85.7420 218° Southwest 18 21  Level FlightAware ADS-B
Thu 11:10:32 PM 38.1720 -85.7410 165° South 16 18  Level FlightAware ADS-B
Thu 11:10:48 PM 38.1710 -85.7400 142° Southeast 31 36  Level FlightAware ADS-B
Thu 11:11:24 PM 38.1710 -85.7390 90° East  Level FlightAware ADS-B
Thu 11:15:00 PM 38.1667 -85.7333 208° Southwest  Level FlightAware Approximate

Login

Don't have an account? Register now (free) for customized features, flight alerts, and more!